createdAt,value
2017-11-01T00:00:39.266Z,9.59
2017-11-01T00:01:39.264Z,9.62
2017-11-01T00:02:39.259Z,9.61
2017-11-01T00:03:39.263Z,9.65
2017-11-01T00:04:39.252Z,9.68
2017-11-01T00:05:39.248Z,9.65
2017-11-01T00:06:39.253Z,9.62
2017-11-01T00:07:39.241Z,9.62
2017-11-01T00:08:39.236Z,9.68
2017-11-01T00:09:39.234Z,9.66
2017-11-01T00:10:39.230Z,9.61
2017-11-01T00:11:39.227Z,9.64
2017-11-01T00:12:39.222Z,9.62
2017-11-01T00:13:39.219Z,9.69
2017-11-01T00:14:39.216Z,9.65
2017-11-01T00:15:39.212Z,9.62
2017-11-01T00:16:39.208Z,9.64
2017-11-01T00:17:39.204Z,9.68
2017-11-01T00:18:39.201Z,9.62
2017-11-01T00:19:39.198Z,9.65
2017-11-01T00:20:39.193Z,9.64
2017-11-01T00:21:39.189Z,9.65
2017-11-01T00:22:39.186Z,9.61
2017-11-01T00:23:39.184Z,9.68
2017-11-01T00:24:39.178Z,9.65
2017-11-01T00:25:39.176Z,9.72
2017-11-01T00:26:39.172Z,9.68
2017-11-01T00:27:39.170Z,9.68
2017-11-01T00:28:39.164Z,9.69
2017-11-01T00:29:39.161Z,9.68
2017-11-01T00:30:39.157Z,9.68
2017-11-01T00:31:39.155Z,9.69
2017-11-01T00:32:39.150Z,9.72
2017-11-01T00:33:39.148Z,9.64
2017-11-01T00:34:39.142Z,9.73
2017-11-01T00:35:39.140Z,9.64
2017-11-01T00:36:39.138Z,9.77
2017-11-01T00:37:39.133Z,9.77
2017-11-01T00:38:39.129Z,9.82
2017-11-01T00:39:39.125Z,9.69
2017-11-01T00:40:39.121Z,9.74
2017-11-01T00:41:39.117Z,9.73
2017-11-01T00:42:39.115Z,9.74
2017-11-01T00:43:39.111Z,9.72
2017-11-01T00:44:39.105Z,9.84
2017-11-01T00:45:39.103Z,9.76
2017-11-01T00:46:39.097Z,9.77
2017-11-01T00:47:39.097Z,9.77
2017-11-01T00:48:39.092Z,9.79
2017-11-01T00:49:39.089Z,9.77
2017-11-01T00:50:39.085Z,9.83
2017-11-01T00:51:39.081Z,9.77
2017-11-01T00:52:39.077Z,9.79
2017-11-01T00:53:39.074Z,9.77
2017-11-01T00:54:39.070Z,9.77
2017-11-01T00:55:39.073Z,9.65
2017-11-01T00:56:39.062Z,9.80
2017-11-01T00:57:39.059Z,9.73
2017-11-01T00:58:39.056Z,9.79
2017-11-01T00:59:39.056Z,9.82
2017-11-01T01:00:39.048Z,9.82
2017-11-01T01:01:39.045Z,9.79
2017-11-01T01:02:39.041Z,9.68
2017-11-01T01:03:39.042Z,9.80
2017-11-01T01:04:39.033Z,9.83
2017-11-01T01:05:39.032Z,9.79
2017-11-01T01:06:39.026Z,9.74
2017-11-01T01:07:39.024Z,9.77
2017-11-01T01:08:39.020Z,9.83
2017-11-01T01:09:39.017Z,9.80
2017-11-01T01:10:39.013Z,9.79
2017-11-01T01:11:39.009Z,9.74
2017-11-01T01:12:39.019Z,9.76
2017-11-01T01:13:39.002Z,9.80
2017-11-01T01:14:38.998Z,9.79
2017-11-01T01:15:38.995Z,9.74
2017-11-01T01:16:38.991Z,9.73
2017-11-01T01:17:38.988Z,9.79
2017-11-01T01:18:38.983Z,9.79
2017-11-01T01:19:38.981Z,9.79
2017-11-01T01:20:38.976Z,9.77
2017-11-01T01:21:38.974Z,9.76
2017-11-01T01:22:38.971Z,9.77
2017-11-01T01:23:38.966Z,9.84
2017-11-01T01:24:38.962Z,9.86
2017-11-01T01:25:38.960Z,9.92
2017-11-01T01:26:38.955Z,9.77
2017-11-01T01:27:38.953Z,9.84
2017-11-01T01:28:38.948Z,9.84
2017-11-01T01:29:38.944Z,9.79
2017-11-01T01:30:38.942Z,9.82
2017-11-01T01:31:38.937Z,9.84
2017-11-01T01:32:38.934Z,9.84
2017-11-01T01:33:38.935Z,9.94
2017-11-01T01:34:38.926Z,9.82
2017-11-01T01:35:38.925Z,9.84
2017-11-01T01:36:38.919Z,9.82
2017-11-01T01:37:38.916Z,9.84
2017-11-01T01:38:38.914Z,9.86
2017-11-01T01:39:38.910Z,9.83
2017-11-01T01:40:38.905Z,9.86
2017-11-01T01:41:38.902Z,9.84
2017-11-01T01:42:38.898Z,9.83
2017-11-01T01:43:38.895Z,9.84
2017-11-01T01:44:38.892Z,9.84
2017-11-01T01:45:38.888Z,9.86
2017-11-01T01:46:38.885Z,9.84
2017-11-01T01:47:38.882Z,9.86
2017-11-01T01:48:38.876Z,9.83
2017-11-01T01:49:38.875Z,9.80
2017-11-01T01:50:38.872Z,9.84
2017-11-01T01:51:38.866Z,9.83
2017-11-01T01:52:38.863Z,9.83
2017-11-01T01:53:38.861Z,9.94
2017-11-01T01:54:38.858Z,9.91
2017-11-01T01:55:38.854Z,9.98
2017-11-01T01:56:38.848Z,9.91
2017-11-01T01:57:38.845Z,9.87
2017-11-01T01:58:38.842Z,9.84
2017-11-01T01:59:38.848Z,9.92
2017-11-01T02:00:38.835Z,9.80
2017-11-01T02:01:38.831Z,9.87
2017-11-01T02:02:38.828Z,9.83
2017-11-01T02:03:38.825Z,9.89
2017-11-01T02:04:38.821Z,9.89
2017-11-01T02:05:38.823Z,9.86
2017-11-01T02:06:38.816Z,9.92
2017-11-01T02:07:38.811Z,9.91
2017-11-01T02:08:38.808Z,9.97
2017-11-01T02:09:38.804Z,9.99
2017-11-01T02:10:38.800Z,9.95
2017-11-01T02:11:38.798Z,9.99
2017-11-01T02:12:38.794Z,9.98
2017-11-01T02:13:38.789Z,9.97
2017-11-01T02:14:38.788Z,9.99
2017-11-01T02:15:38.786Z,9.97
2017-11-01T02:16:38.781Z,9.91
2017-11-01T02:17:38.777Z,9.97
2017-11-01T02:18:38.781Z,9.87
2017-11-01T02:19:38.774Z,9.95
2017-11-01T02:20:38.765Z,9.87
2017-11-01T02:21:38.763Z,9.94
2017-11-01T02:22:38.760Z,9.91
2017-11-01T02:23:38.757Z,10.01
2017-11-01T02:24:38.752Z,9.99
2017-11-01T02:25:38.750Z,9.97
2017-11-01T02:26:38.747Z,9.98
2017-11-01T02:27:38.743Z,10.01
2017-11-01T02:28:38.739Z,9.94
2017-11-01T02:29:38.735Z,10.01
2017-11-01T02:30:38.732Z,10.01
2017-11-01T02:31:38.730Z,9.98
2017-11-01T02:32:38.724Z,9.94
2017-11-01T02:33:38.722Z,10.01
2017-11-01T02:34:38.720Z,10.01
2017-11-01T02:35:38.716Z,10.04
2017-11-01T02:36:38.713Z,10.07
2017-11-01T02:37:38.708Z,9.99
2017-11-01T02:38:38.704Z,10.02
2017-11-01T02:39:38.702Z,9.98
2017-11-01T02:40:38.699Z,9.99
2017-11-01T02:41:38.695Z,10.07
2017-11-01T02:42:38.691Z,10.09
2017-11-01T02:43:38.688Z,9.97
2017-11-01T02:44:38.685Z,10.04
2017-11-01T02:45:38.680Z,9.98
2017-11-01T02:46:38.679Z,10.04
2017-11-01T02:47:38.675Z,9.99
2017-11-01T02:48:38.672Z,10.04
2017-11-01T02:49:38.667Z,10.05
2017-11-01T02:50:38.666Z,10.04
2017-11-01T02:51:38.667Z,10.04
2017-11-01T02:52:38.664Z,10.07
2017-11-01T02:53:38.654Z,9.95
2017-11-01T02:54:38.651Z,9.95
2017-11-01T02:55:38.648Z,9.99
2017-11-01T02:56:38.645Z,10.04
2017-11-01T02:57:38.641Z,10.07
2017-11-01T02:58:38.638Z,10.02
2017-11-01T02:59:38.640Z,10.07
2017-11-01T03:00:38.632Z,10.04
2017-11-01T03:01:38.631Z,10.04
2017-11-01T03:02:38.626Z,9.99
2017-11-01T03:03:38.622Z,10.07
2017-11-01T03:04:38.618Z,10.01
2017-11-01T03:05:38.615Z,10.10
2017-11-01T03:06:38.612Z,10.10
2017-11-01T03:07:38.609Z,10.07
2017-11-01T03:08:38.603Z,10.15
2017-11-01T03:09:38.605Z,10.02
2017-11-01T03:10:38.599Z,10.07
2017-11-01T03:11:38.595Z,10.07
2017-11-01T03:12:38.591Z,10.10
2017-11-01T03:13:38.588Z,10.09
2017-11-01T03:14:38.584Z,10.15
2017-11-01T03:15:38.582Z,10.07
2017-11-01T03:16:38.579Z,9.99
2017-11-01T03:17:38.574Z,10.01
2017-11-01T03:18:38.572Z,10.02
2017-11-01T03:19:38.569Z,9.98
2017-11-01T03:20:38.563Z,10.17
2017-11-01T03:21:38.562Z,10.04
2017-11-01T03:22:38.558Z,10.02
2017-11-01T03:23:38.554Z,10.15
2017-11-01T03:24:38.551Z,9.98
2017-11-01T03:25:38.549Z,10.02
2017-11-01T03:26:38.546Z,9.99
2017-11-01T03:27:38.541Z,10.09
2017-11-01T03:28:38.538Z,10.07
2017-11-01T03:29:38.534Z,10.04
2017-11-01T03:30:38.532Z,10.07
2017-11-01T03:31:38.529Z,10.07
2017-11-01T03:32:38.524Z,10.13
2017-11-01T03:33:38.521Z,10.10
2017-11-01T03:34:38.518Z,10.10
2017-11-01T03:35:38.517Z,10.10
2017-11-01T03:36:38.511Z,10.12
2017-11-01T03:37:38.508Z,10.12
2017-11-01T03:38:38.506Z,10.13
2017-11-01T03:39:38.502Z,10.19
2017-11-01T03:40:38.498Z,10.07
2017-11-01T03:41:38.497Z,10.07
2017-11-01T03:42:38.492Z,10.20
2017-11-01T03:43:38.489Z,10.15
2017-11-01T03:44:38.485Z,10.16
2017-11-01T03:45:38.482Z,10.05
2017-11-01T03:46:38.479Z,10.12
2017-11-01T03:47:38.476Z,10.15
2017-11-01T03:48:38.471Z,10.10
2017-11-01T03:49:38.469Z,10.22
2017-11-01T03:50:38.467Z,10.12
2017-11-01T03:51:38.463Z,10.16
2017-11-01T03:52:38.464Z,10.07
2017-11-01T03:53:38.456Z,10.10
2017-11-01T03:54:38.455Z,10.15
2017-11-01T03:55:38.449Z,10.12
2017-11-01T03:56:38.447Z,10.04
2017-11-01T03:57:38.443Z,10.19
2017-11-01T03:58:38.440Z,10.10
2017-11-01T03:59:38.438Z,10.16
2017-11-01T04:00:38.433Z,10.02
2017-11-01T04:01:38.430Z,10.10
2017-11-01T04:02:38.428Z,10.13
2017-11-01T04:03:38.425Z,10.13
2017-11-01T04:04:38.420Z,10.09
2017-11-01T04:05:38.417Z,10.12
2017-11-01T04:06:38.414Z,10.13
2017-11-01T04:07:38.412Z,10.10
2017-11-01T04:08:38.407Z,10.09
2017-11-01T04:09:38.405Z,10.09
2017-11-01T04:10:38.401Z,10.15
2017-11-01T04:11:38.400Z,10.10
2017-11-01T04:12:38.394Z,10.04
2017-11-01T04:13:38.392Z,10.12
2017-11-01T04:14:38.389Z,10.02
2017-11-01T04:15:38.385Z,10.15
2017-11-01T04:16:38.382Z,10.10
2017-11-01T04:17:38.378Z,10.07
2017-11-01T04:18:38.377Z,9.97
2017-11-01T04:19:38.374Z,10.01
2017-11-01T04:20:38.368Z,10.05
2017-11-01T04:21:38.366Z,10.07
2017-11-01T04:22:38.364Z,10.01
2017-11-01T04:23:38.360Z,10.02
2017-11-01T04:24:38.356Z,10.04
2017-11-01T04:25:38.354Z,10.05
2017-11-01T04:26:38.351Z,9.97
2017-11-01T04:27:38.347Z,10.01
2017-11-01T04:28:38.343Z,10.07
2017-11-01T04:29:38.342Z,10.04
2017-11-01T04:30:38.339Z,10.04
2017-11-01T04:31:38.335Z,10.05
2017-11-01T04:32:38.330Z,10.04
2017-11-01T04:33:38.329Z,10.04
2017-11-01T04:34:38.326Z,9.99
2017-11-01T04:35:38.324Z,10.07
2017-11-01T04:36:38.319Z,10.01
2017-11-01T04:37:38.315Z,9.98
2017-11-01T04:38:38.313Z,10.02
2017-11-01T04:39:38.308Z,10.02
2017-11-01T04:40:38.306Z,10.01
2017-11-01T04:41:38.303Z,10.01
2017-11-01T04:42:38.298Z,9.99
2017-11-01T04:43:38.296Z,10.01
2017-11-01T04:44:38.291Z,10.01
2017-11-01T04:45:38.289Z,10.05
2017-11-01T04:46:38.286Z,10.04
2017-11-01T04:47:38.282Z,10.01
2017-11-01T04:48:38.278Z,9.99
2017-11-01T04:49:38.276Z,10.01
2017-11-01T04:50:38.273Z,10.04
2017-11-01T04:51:38.270Z,10.04
2017-11-01T04:52:38.266Z,10.02
2017-11-01T04:53:38.263Z,9.99
2017-11-01T04:54:38.259Z,10.01
2017-11-01T04:55:38.257Z,10.04
2017-11-01T04:56:38.254Z,10.02
2017-11-01T04:57:38.249Z,10.04
2017-11-01T04:58:38.248Z,10.05
2017-11-01T04:59:38.245Z,9.95
2017-11-01T05:00:38.241Z,10.05
2017-11-01T05:01:38.237Z,10.04
2017-11-01T05:02:38.235Z,10.04
2017-11-01T05:03:38.233Z,10.04
2017-11-01T05:04:38.228Z,10.07
2017-11-01T05:05:38.224Z,10.05
2017-11-01T05:06:38.222Z,10.07
2017-11-01T05:07:38.219Z,10.09
2017-11-01T05:08:38.216Z,10.10
2017-11-01T05:09:38.211Z,9.99
2017-11-01T05:10:38.213Z,10.04
2017-11-01T05:11:38.209Z,10.01
2017-11-01T05:12:38.201Z,10.07
2017-11-01T05:13:38.199Z,10.04
2017-11-01T05:14:38.197Z,10.02
2017-11-01T05:15:38.191Z,9.98
2017-11-01T05:16:38.189Z,10.01
2017-11-01T05:17:38.185Z,9.95
2017-11-01T05:18:38.201Z,10.07
2017-11-01T05:19:38.180Z,10.01
2017-11-01T05:20:38.174Z,10.01
2017-11-01T05:21:38.172Z,10.04
2017-11-01T05:22:38.172Z,10.04
2017-11-01T05:23:38.166Z,10.09
2017-11-01T05:24:38.162Z,10.07
2017-11-01T05:25:38.159Z,10.01
2017-11-01T05:26:38.156Z,10.07
2017-11-01T05:27:38.153Z,10.09
2017-11-01T05:28:38.148Z,10.04
2017-11-01T05:29:38.147Z,10.04
2017-11-01T05:30:38.142Z,10.01
2017-11-01T05:31:38.140Z,10.05
2017-11-01T05:32:38.136Z,10.01
2017-11-01T05:33:38.133Z,10.01
2017-11-01T05:34:38.130Z,9.98
2017-11-01T05:35:38.127Z,10.02
2017-11-01T05:36:38.121Z,10.01
2017-11-01T05:37:38.118Z,10.02
2017-11-01T05:38:38.116Z,9.98
2017-11-01T05:39:38.112Z,10.07
2017-11-01T05:40:38.109Z,10.01
2017-11-01T05:41:38.105Z,9.98
2017-11-01T05:42:38.102Z,9.94
2017-11-01T05:43:38.100Z,10.02
2017-11-01T05:44:38.095Z,9.97
2017-11-01T05:45:38.105Z,10.04
2017-11-01T05:46:38.090Z,9.95
2017-11-01T05:47:38.085Z,10.02
2017-11-01T05:48:38.082Z,9.98
2017-11-01T05:49:38.079Z,10.07
2017-11-01T05:50:38.074Z,9.95
2017-11-01T05:51:38.072Z,10.04
2017-11-01T05:52:38.067Z,10.07
2017-11-01T05:53:38.064Z,10.01
2017-11-01T05:54:38.062Z,10.01
2017-11-01T05:55:38.059Z,9.94
2017-11-01T05:56:38.054Z,10.02
2017-11-01T05:57:38.051Z,10.02
2017-11-01T05:58:38.050Z,10.10
2017-11-01T05:59:38.045Z,9.98
2017-11-01T06:00:38.044Z,10.02
2017-11-01T06:01:38.038Z,10.07
2017-11-01T06:02:38.033Z,10.04
2017-11-01T06:03:38.031Z,10.02
2017-11-01T06:04:38.027Z,9.99
2017-11-01T06:05:38.024Z,10.07
2017-11-01T06:06:38.022Z,10.10
2017-11-01T06:07:38.017Z,10.02
2017-11-01T06:08:38.013Z,10.01
2017-11-01T06:09:38.019Z,10.01
2017-11-01T06:10:38.011Z,10.02
2017-11-01T06:11:38.005Z,10.01
2017-11-01T06:12:38.001Z,9.99
2017-11-01T06:13:37.997Z,10.09
2017-11-01T06:14:37.994Z,10.07
2017-11-01T06:15:37.992Z,10.02
2017-11-01T06:16:37.990Z,10.02
2017-11-01T06:17:37.983Z,10.13
2017-11-01T06:18:37.981Z,10.09
2017-11-01T06:19:37.986Z,10.17
2017-11-01T06:20:37.973Z,10.02
2017-11-01T06:21:37.971Z,10.15
2017-11-01T06:22:37.967Z,10.13
2017-11-01T06:23:37.965Z,10.10
2017-11-01T06:24:37.961Z,10.05
2017-11-01T06:25:37.957Z,10.16
2017-11-01T06:26:37.955Z,10.07
2017-11-01T06:27:37.950Z,10.15
2017-11-01T06:28:37.946Z,10.15
2017-11-01T06:29:37.945Z,10.19
2017-11-01T06:30:37.940Z,10.17
2017-11-01T06:31:37.938Z,10.05
2017-11-01T06:32:37.934Z,10.13
2017-11-01T06:33:37.930Z,10.15
2017-11-01T06:34:37.929Z,10.17
2017-11-01T06:35:37.927Z,10.19
2017-11-01T06:36:37.921Z,10.13
2017-11-01T06:37:37.917Z,10.13
2017-11-01T06:38:37.915Z,10.09
2017-11-01T06:39:37.912Z,10.09
2017-11-01T06:40:37.907Z,10.07
2017-11-01T06:41:37.905Z,10.13
2017-11-01T06:42:37.901Z,10.09
2017-11-01T06:43:37.898Z,10.07
2017-11-01T06:44:37.893Z,10.02
2017-11-01T06:45:37.892Z,10.13
2017-11-01T06:46:37.907Z,10.05
2017-11-01T06:47:37.889Z,10.05
2017-11-01T06:48:37.881Z,10.10
2017-11-01T06:49:37.877Z,10.10
2017-11-01T06:50:37.874Z,10.15
2017-11-01T06:51:37.871Z,10.12
2017-11-01T06:52:37.868Z,10.15
2017-11-01T06:53:37.864Z,10.15
2017-11-01T06:54:37.862Z,10.10
2017-11-01T06:55:37.858Z,10.10
2017-11-01T06:56:37.853Z,10.25
2017-11-01T06:57:37.850Z,10.16
2017-11-01T06:58:37.854Z,10.12
2017-11-01T06:59:37.845Z,10.17
2017-11-01T07:00:37.841Z,10.25
2017-11-01T07:01:37.837Z,10.30
2017-11-01T07:02:37.833Z,10.25
2017-11-01T07:03:37.831Z,10.17
2017-11-01T07:04:37.827Z,10.19
2017-11-01T07:05:37.826Z,10.28
2017-11-01T07:06:37.821Z,10.28
2017-11-01T07:07:37.817Z,10.28
2017-11-01T07:08:37.813Z,10.30
2017-11-01T07:09:37.812Z,10.23
2017-11-01T07:10:37.809Z,10.25
2017-11-01T07:11:37.805Z,10.23
2017-11-01T07:12:37.800Z,10.26
2017-11-01T07:13:37.799Z,10.22
2017-11-01T07:14:37.796Z,10.31
2017-11-01T07:15:37.793Z,10.34
2017-11-01T07:16:37.788Z,10.34
2017-11-01T07:17:37.785Z,10.20
2017-11-01T07:18:37.784Z,10.33
2017-11-01T07:19:37.779Z,10.37
2017-11-01T07:20:37.776Z,10.31
2017-11-01T07:21:37.780Z,10.23
2017-11-01T07:22:37.770Z,10.30
2017-11-01T07:23:37.766Z,10.37
2017-11-01T07:24:37.763Z,10.34
2017-11-01T07:25:37.760Z,10.30
2017-11-01T07:26:37.756Z,10.30
2017-11-01T07:27:37.755Z,10.38
2017-11-01T07:28:37.750Z,10.30
2017-11-01T07:29:37.748Z,10.38
2017-11-01T07:30:37.748Z,10.38
2017-11-01T07:31:37.741Z,10.33
2017-11-01T07:32:37.743Z,10.26
2017-11-01T07:33:37.736Z,10.34
2017-11-01T07:34:37.733Z,10.37
2017-11-01T07:35:37.729Z,10.33
2017-11-01T07:36:37.725Z,10.37
2017-11-01T07:37:37.722Z,10.31
2017-11-01T07:38:37.721Z,10.33
2017-11-01T07:39:37.717Z,10.34
2017-11-01T07:40:37.713Z,10.30
2017-11-01T07:41:37.711Z,10.35
2017-11-01T07:42:37.707Z,10.34
2017-11-01T07:43:37.705Z,10.38
2017-11-01T07:44:37.701Z,10.33
2017-11-01T07:45:37.697Z,10.31
2017-11-01T07:46:37.695Z,10.41
2017-11-01T07:47:37.694Z,10.46
2017-11-01T07:48:37.688Z,10.41
2017-11-01T07:49:37.686Z,10.33
2017-11-01T07:50:37.686Z,10.41
2017-11-01T07:51:37.680Z,10.37
2017-11-01T07:52:37.677Z,10.41
2017-11-01T07:53:37.673Z,10.44
2017-11-01T07:54:37.672Z,10.37
2017-11-01T07:55:37.669Z,10.40
2017-11-01T07:56:37.666Z,10.37
2017-11-01T07:57:37.663Z,10.40
2017-11-01T07:58:37.658Z,10.42
2017-11-01T07:59:37.657Z,10.38
2017-11-01T08:00:37.655Z,10.44
2017-11-01T08:01:37.650Z,10.46
2017-11-01T08:02:37.651Z,10.44
2017-11-01T08:03:37.643Z,10.46
2017-11-01T08:04:37.641Z,10.41
2017-11-01T08:05:37.638Z,10.46
2017-11-01T08:06:37.636Z,10.48
2017-11-01T08:07:37.632Z,10.48
2017-11-01T08:08:37.627Z,10.49
2017-11-01T08:09:37.626Z,10.46
2017-11-01T08:10:37.623Z,10.38
2017-11-01T08:11:37.621Z,10.49
2017-11-01T08:12:37.618Z,10.42
2017-11-01T08:13:37.613Z,10.48
2017-11-01T08:14:37.615Z,10.48
2017-11-01T08:15:37.608Z,10.44
2017-11-01T08:16:37.607Z,10.49
2017-11-01T08:17:37.607Z,10.56
2017-11-01T08:18:37.604Z,10.49
2017-11-01T08:19:37.595Z,10.56
2017-11-01T08:20:37.594Z,10.53
2017-11-01T08:21:37.590Z,10.53
2017-11-01T08:22:37.586Z,10.56
2017-11-01T08:23:37.586Z,10.49
2017-11-01T08:24:37.582Z,10.46
2017-11-01T08:25:37.577Z,10.46
2017-11-01T08:26:37.576Z,10.49
2017-11-01T08:27:37.572Z,10.54
2017-11-01T08:28:37.568Z,10.49
2017-11-01T08:29:37.567Z,10.49
2017-11-01T08:30:37.563Z,10.51
2017-11-01T08:31:37.561Z,10.56
2017-11-01T08:32:37.558Z,10.54
2017-11-01T08:33:37.552Z,10.49
2017-11-01T08:34:37.551Z,10.54
2017-11-01T08:35:37.548Z,10.56
2017-11-01T08:36:37.545Z,10.54
2017-11-01T08:37:37.542Z,10.60
2017-11-01T08:38:37.539Z,10.54
2017-11-01T08:39:37.537Z,10.54
2017-11-01T08:40:37.532Z,10.53
2017-11-01T08:41:37.531Z,10.53
2017-11-01T08:42:37.534Z,10.54
2017-11-01T08:43:37.526Z,10.61
2017-11-01T08:44:37.523Z,10.51
2017-11-01T08:45:37.518Z,10.57
2017-11-01T08:46:37.516Z,10.59
2017-11-01T08:47:37.515Z,10.54
2017-11-01T08:48:37.509Z,10.64
2017-11-01T08:49:37.508Z,10.59
2017-11-01T08:50:37.503Z,10.64
2017-11-01T08:51:37.502Z,10.61
2017-11-01T08:52:37.498Z,10.64
2017-11-01T08:53:37.494Z,10.56
2017-11-01T08:54:37.493Z,10.56
2017-11-01T08:55:37.495Z,10.57
2017-11-01T08:56:37.487Z,10.64
2017-11-01T08:57:37.485Z,10.61
2017-11-01T08:58:37.481Z,10.63
2017-11-01T08:59:37.478Z,10.61
2017-11-01T09:00:37.475Z,10.64
2017-11-01T09:01:37.473Z,10.64
2017-11-01T09:02:37.475Z,10.75
2017-11-01T09:03:37.467Z,10.78
2017-11-01T09:04:37.464Z,10.71
2017-11-01T09:05:37.461Z,10.72
2017-11-01T09:06:37.459Z,10.72
2017-11-01T09:07:37.455Z,10.69
2017-11-01T09:08:37.452Z,10.71
2017-11-01T09:09:37.454Z,10.72
2017-11-01T09:10:37.447Z,10.74
2017-11-01T09:11:37.445Z,10.78
2017-11-01T09:12:37.442Z,10.86
2017-11-01T09:13:37.440Z,10.72
2017-11-01T09:14:37.438Z,10.75
2017-11-01T09:15:37.434Z,10.76
2017-11-01T09:16:37.430Z,10.78
2017-11-01T09:17:37.429Z,10.84
2017-11-01T09:18:37.426Z,10.84
2017-11-01T09:19:37.423Z,10.89
2017-11-01T09:20:37.419Z,10.84
2017-11-01T09:21:37.419Z,10.86
2017-11-01T09:22:37.416Z,10.86
2017-11-01T09:23:37.413Z,10.92
2017-11-01T09:24:37.410Z,10.93
2017-11-01T09:25:37.407Z,10.99
2017-11-01T09:26:37.406Z,11.02
2017-11-01T09:27:37.417Z,11.00
2017-11-01T09:28:37.398Z,11.08
2017-11-01T09:29:37.397Z,11.02
2017-11-01T09:30:37.395Z,10.99
2017-11-01T09:31:37.392Z,11.04
2017-11-01T09:32:37.388Z,10.97
2017-11-01T09:33:37.385Z,11.11
2017-11-01T09:34:37.385Z,11.00
2017-11-01T09:35:37.384Z,11.05
2017-11-01T09:36:37.377Z,10.96
2017-11-01T09:37:37.377Z,10.99
2017-11-01T09:38:37.375Z,11.00
2017-11-01T09:39:37.372Z,11.11
2017-11-01T09:40:37.368Z,10.99
2017-11-01T09:41:37.366Z,11.10
2017-11-01T09:42:37.363Z,11.04
2017-11-01T09:43:37.362Z,11.07
2017-11-01T09:44:37.358Z,10.99
2017-11-01T09:45:37.356Z,11.00
2017-11-01T09:46:37.355Z,11.04
2017-11-01T09:47:37.353Z,11.11
2017-11-01T09:48:37.349Z,11.12
2017-11-01T09:49:37.346Z,11.15
2017-11-01T09:50:37.346Z,11.19
2017-11-01T09:51:37.348Z,11.25
2017-11-01T09:52:37.340Z,11.18
2017-11-01T09:53:37.336Z,11.30
2017-11-01T09:54:37.334Z,11.22
2017-11-01T09:55:37.333Z,11.27
2017-11-01T09:56:37.337Z,11.36
2017-11-01T09:57:37.327Z,11.33
2017-11-01T09:58:37.327Z,11.25
2017-11-01T09:59:37.324Z,11.36
2017-11-01T10:00:37.321Z,11.36
2017-11-01T10:01:37.318Z,11.36
2017-11-01T10:02:37.322Z,11.36
2017-11-01T10:03:37.315Z,11.47
2017-11-01T10:04:37.310Z,11.32
2017-11-01T10:05:37.312Z,11.37
2017-11-01T10:06:37.306Z,11.27
2017-11-01T10:07:37.306Z,11.44
2017-11-01T10:08:37.303Z,11.32
2017-11-01T10:09:37.306Z,11.23
2017-11-01T10:10:37.298Z,11.12
2017-11-01T10:11:37.296Z,11.11
2017-11-01T10:12:37.294Z,11.15
2017-11-01T10:13:37.297Z,11.15
2017-11-01T10:14:37.290Z,11.15
2017-11-01T10:15:37.286Z,11.14
2017-11-01T10:16:37.285Z,11.18
2017-11-01T10:17:37.283Z,11.10
2017-11-01T10:18:37.282Z,11.14
2017-11-01T10:19:37.279Z,11.15
2017-11-01T10:20:37.275Z,11.12
2017-11-01T10:21:37.274Z,11.15
2017-11-01T10:22:37.272Z,11.14
2017-11-01T10:23:37.269Z,11.15
2017-11-01T10:24:37.267Z,11.14
2017-11-01T10:25:37.264Z,11.12
2017-11-01T10:26:37.263Z,11.22
2017-11-01T10:27:37.261Z,11.32
2017-11-01T10:28:37.259Z,11.30
2017-11-01T10:29:37.257Z,11.23
2017-11-01T10:30:37.253Z,11.33
2017-11-01T10:31:37.251Z,11.37
2017-11-01T10:32:37.249Z,11.35
2017-11-01T10:33:37.247Z,11.43
2017-11-01T10:34:37.244Z,11.43
2017-11-01T10:35:37.242Z,11.47
2017-11-01T10:36:37.244Z,11.44
2017-11-01T10:37:37.239Z,11.47
2017-11-01T10:38:37.240Z,11.44
2017-11-01T10:39:37.235Z,11.43
2017-11-01T10:40:37.232Z,11.33
2017-11-01T10:41:37.237Z,11.45
2017-11-01T10:42:37.229Z,11.48
2017-11-01T10:43:37.227Z,11.51
2017-11-01T10:44:37.224Z,11.50
2017-11-01T10:45:37.222Z,11.51
2017-11-01T10:46:37.221Z,11.47
2017-11-01T10:47:37.220Z,11.45
2017-11-01T10:48:37.215Z,11.44
2017-11-01T10:49:37.214Z,11.35
2017-11-01T10:50:37.213Z,11.47
2017-11-01T10:51:37.210Z,11.51
2017-11-01T10:52:37.207Z,11.45
2017-11-01T10:53:37.204Z,11.50
2017-11-01T10:54:37.204Z,11.50
2017-11-01T10:55:37.202Z,11.47
2017-11-01T10:56:37.199Z,11.36
2017-11-01T10:57:37.200Z,11.45
2017-11-01T10:58:37.197Z,11.44
2017-11-01T10:59:37.194Z,11.47
2017-11-01T11:00:37.191Z,11.47
2017-11-01T11:01:37.190Z,11.47
2017-11-01T11:02:37.188Z,11.50
2017-11-01T11:03:37.186Z,11.52
2017-11-01T11:04:37.184Z,11.45
2017-11-01T11:05:37.184Z,11.50
2017-11-01T11:06:37.180Z,11.51
2017-11-01T11:07:37.183Z,11.57
2017-11-01T11:08:37.180Z,11.60
2017-11-01T11:09:37.173Z,11.54
2017-11-01T11:10:37.173Z,11.52
2017-11-01T11:11:37.171Z,11.52
2017-11-01T11:12:37.168Z,11.55
2017-11-01T11:13:37.167Z,11.60
2017-11-01T11:14:37.165Z,11.63
2017-11-01T11:15:37.163Z,11.69
2017-11-01T11:16:37.160Z,11.63
2017-11-01T11:17:37.159Z,11.66
2017-11-01T11:18:37.158Z,11.68
2017-11-01T11:19:37.157Z,11.69
2017-11-01T11:20:37.154Z,11.70
2017-11-01T11:21:37.152Z,11.77
2017-11-01T11:22:37.149Z,11.84
2017-11-01T11:23:37.166Z,11.66
2017-11-01T11:24:37.146Z,11.65
2017-11-01T11:25:37.145Z,11.54
2017-11-01T11:26:37.143Z,11.54
2017-11-01T11:27:37.140Z,11.54
2017-11-01T11:28:37.143Z,11.57
2017-11-01T11:29:37.137Z,11.60
2017-11-01T11:30:37.137Z,11.69
2017-11-01T11:31:37.134Z,11.62
2017-11-01T11:32:37.131Z,11.62
2017-11-01T11:33:37.130Z,11.65
2017-11-01T11:34:37.129Z,11.72
2017-11-01T11:35:37.128Z,11.66
2017-11-01T11:36:37.125Z,11.55
2017-11-01T11:37:37.125Z,11.59
2017-11-01T11:38:37.120Z,11.65
2017-11-01T11:39:37.119Z,11.65
2017-11-01T11:40:37.118Z,11.62
2017-11-01T11:41:37.117Z,11.62
2017-11-01T11:42:37.115Z,11.70
2017-11-01T11:43:37.113Z,11.70
2017-11-01T11:44:37.110Z,11.63
2017-11-01T11:45:37.109Z,11.72
2017-11-01T11:46:37.108Z,11.72
2017-11-01T11:47:37.105Z,11.62
2017-11-01T11:48:37.103Z,11.66
2017-11-01T11:49:37.102Z,11.70
2017-11-01T11:50:37.101Z,11.62
2017-11-01T11:51:37.107Z,11.65
2017-11-01T11:52:37.097Z,11.73
2017-11-01T11:53:37.095Z,11.66
2017-11-01T11:54:37.094Z,11.70
2017-11-01T11:55:37.092Z,11.78
2017-11-01T11:56:37.090Z,11.84
2017-11-01T11:57:37.088Z,11.80
2017-11-01T11:58:37.087Z,11.86
2017-11-01T11:59:37.086Z,11.78
2017-11-01T12:00:37.082Z,11.94
2017-11-01T12:01:37.083Z,11.94
2017-11-01T12:02:37.080Z,11.99
2017-11-01T12:03:37.078Z,12.04
2017-11-01T12:04:37.077Z,12.02
2017-11-01T12:05:37.075Z,11.91
2017-11-01T12:06:37.074Z,11.90
2017-11-01T12:07:37.073Z,11.91
2017-11-01T12:08:37.073Z,12.07
2017-11-01T12:09:37.071Z,12.24
2017-11-01T12:10:37.069Z,12.22
2017-11-01T12:11:37.066Z,12.20
2017-11-01T12:12:37.064Z,12.18
2017-11-01T12:13:37.063Z,12.22
2017-11-01T12:14:37.061Z,12.24
2017-11-01T12:15:37.059Z,12.24
2017-11-01T12:16:37.057Z,12.21
2017-11-01T12:17:37.058Z,12.21
2017-11-01T12:18:37.058Z,12.28
2017-11-01T12:19:37.056Z,12.15
2017-11-01T12:20:37.054Z,12.18
2017-11-01T12:21:37.051Z,12.21
2017-11-01T12:22:37.051Z,12.31
2017-11-01T12:23:37.051Z,12.24
2017-11-01T12:24:37.049Z,12.35
2017-11-01T12:25:37.046Z,12.40
2017-11-01T12:26:37.046Z,12.45
2017-11-01T12:27:37.046Z,12.46
2017-11-01T12:28:37.044Z,12.50
2017-11-01T12:29:37.043Z,12.46
2017-11-01T12:30:37.042Z,12.46
2017-11-01T12:31:37.041Z,12.46
2017-11-01T12:32:37.040Z,12.45
2017-11-01T12:33:37.038Z,12.54
2017-11-01T12:34:37.036Z,12.54
2017-11-01T12:35:37.043Z,12.61
2017-11-01T12:36:37.033Z,12.61
2017-11-01T12:37:37.033Z,12.70
2017-11-01T12:38:37.032Z,12.62
2017-11-01T12:39:37.032Z,12.54
2017-11-01T12:40:37.029Z,12.60
2017-11-01T12:41:37.029Z,12.60
2017-11-01T12:42:37.028Z,12.70
2017-11-01T12:43:37.026Z,12.65
2017-11-01T12:44:37.026Z,12.68
2017-11-01T12:45:37.026Z,12.85
2017-11-01T12:46:37.023Z,12.85
2017-11-01T12:47:37.023Z,12.79
2017-11-01T12:48:37.022Z,12.83
2017-11-01T12:49:37.021Z,12.86
2017-11-01T12:50:37.021Z,13.00
2017-11-01T12:51:37.020Z,12.97
2017-11-01T12:52:37.018Z,12.94
2017-11-01T12:53:37.022Z,13.03
2017-11-01T12:54:37.017Z,13.16
2017-11-01T12:55:37.019Z,13.30
2017-11-01T12:56:37.015Z,13.46
2017-11-01T12:57:37.019Z,13.38
2017-11-01T12:58:37.013Z,13.30